Terminal Aerodrome Forecast
Issued by NWS

Home | Current Version | Previous Version | Text Only | Print | Product List | Glossary Off
Versions: 1 2 3 4 5 6 7 8 9 10 11 12 13 14 15 16 17 18 19 20

000
FTUS43 KTOP 160500
TAFFOE
TAF
KFOE 160520Z 1606/1706 31020G28KT P6SM OVC022
     FM161700 33016G23KT P6SM SCT030
     FM162300 35005KT P6SM SCT030 SCT200=

USA.gov is the U.S. government's official web portal to all federal, state and local government web resources and services.